Warning: Javascript must be enabled to use all the features on this page!


Page Loading - Please Wait...

Click to hideNews Bulletins

Peak Streamflow for the Nation

USGS 14211500 JOHNSON CREEK AT SYCAMORE, OR

Multnomah County, Oregon
Hydrologic Unit Code 17090012
Latitude  45°28'38.84", Longitude 122°30'28.87" NAD83
Drainage area 26.8  square miles
Gage datum 228.47 feet above NGVD29
Output formats
Table
Graph
Tab-separated file
peakfq (watstore) format
Reselect output format
Water
Year
Date Gage
Height
(feet)
Stream-
flow
(cfs)
1941 1941-01-18 5.90 499
1942 1941-12-19 8.51 937
1943 1942-11-23 11.76 1,770
1944 1944-02-06 4.79 260
1945 1945-02-07 6.33 529
1946 1945-11-27 8.70 888
1947 1946-12-12 11.25 1,420
1948 1948-01-07 13.06 1,900
1949 1949-02-10 13.77 2,110
1950 1950-01-10 8.99 839
1951 1950-11-17 10.62 1,160
1952 1951-12-01 8.39 714
1953 1953-01-18 10.00 1,020
1954 1954-01-22 12.23 1,590
1955 1955-04-12 7.44 506
1956 1956-01-04 13.23 1,820
1957 1957-03-07 11.69 1,560
1958 1958-04-20 8.70 848
1959 1958-12-11 8.45 782
1960 1960-02-07 7.95 679
1961 1960-11-24 13.78 2,180
1962 1961-12-20 8.60 840
1963 1962-11-20 12.66 1,830
1964 1964-01-25 10.61 1,380
1965 1964-12-22 14.68 2,620
1966 1966-01-04 11.82 1,620
1967 1967-01-28 8.54 728
1968 1968-02-19 11.30 1,370
1969 1969-01-07 12.29 2,220
1970 1970-01-23 9.99 1,430
1971 1971-01-19 9.22 1,120
1972 1972-01-21 12.70 1,910
1973 1972-12-21 10.80 1,380
1974 1974-01-15 12.72 2,080
1975 1975-01-25 10.73 1,360
1976 1976-02-27 9.73 1,120
1977 1977-03-09 5.34 329
1978 1977-12-13 13.89 2,250
1979 1979-02-07 11.09 1,200
1980 1980-01-12 14.03 2,210
1981 1980-12-03 12.07 1,330
1982 1982-02-20 13.66 2,020
1983 1983-01-06 11.98 1,290
1984 1983-11-24 8.87 659
1985 1984-11-02 9.23 711
1986 1986-02-16 12.01 1,300
1987 1987-02-01 12.10 1,340
1988 1988-01-15 10.92 1,010
1989 1989-03-05 8.57 610
1990 1990-01-10 10.15 860
1991 1991-02-20 11.23 1,130
1992 1991-12-06 11.17 1,120
1993 1992-12-10 9.76 825
1994 1994-02-24 13.21 1,600
1995 1994-11-01 12.26 1,300
1996 1996-02-07 14.28 2,350
1997 1996-11-19 15.30 2,550
1998 1998-01-14 9.93 854
1999 1998-12-28 10.41 950
2000 1999-11-26 8.76 664
2001 2000-10-01 5.21 258
2002 2002-01-25 8.55 632
2003 2003-01-31 13.24 1,820
2004 2003-12-13 11.28 1,140
2005 2005-03-27 7.12 447
2006 2005-12-30 10.72 1,150
2007 2006-12-14 10.24 1,030
2008 2007-12-03 11.92 1,430
2009 2009-01-02 14.69 2,430
2010 2010-03-29 8.60 736
2011 2010-12-09 9.86 956
2012 2012-01-19 13.21 1,820
2013 2012-11-19 9.99 980
2014 2013-12-02 8.00 645
2015 2015-03-15 8.71 754
2016 2015-12-07 15.28 2,740
2017 2017-02-05 10.73 1,200
2018 2017-10-22 6.82 524
2019 2019-04-08 6.67 500
2020 2020-01-28 6.78 516
2021 2021-01-13 11.33 1,320
2022 2022-06-11 10.31 1,110